Time;durP1;ratioP1;P1;durP2;ratioP2;P2;SDS_P1;SDS_P2;PMS_P1;PMS_P2;Temp;Humidity;BMP_temperature;BMP_pressure;BME280_temperature;BME280_humidity;BME280_pressure;Samples;Min_cycle;Max_cycle;Signal;HPM_P1;HPM_P2
2023/08/22 00:00:23;;;;;;;4.40;2.25;;;;;;;14.72;100.00;101958.13;4948655;29;20217;-49
2023/08/22 00:02:48;;;;;;;2.78;2.05;;;;;;;14.77;100.00;101970.47;4947812;29;20197;-50
2023/08/22 00:05:14;;;;;;;4.57;2.03;;;;;;;14.81;100.00;101963.16;4933306;29;20183;-49
2023/08/22 00:07:41;;;;;;;5.28;2.25;;;;;;;14.84;100.00;101961.22;4950920;29;20624;-49
2023/08/22 00:10:08;;;;;;;2.42;2.00;;;;;;;14.87;100.00;101949.44;4944451;29;20234;-49
2023/08/22 00:12:34;;;;;;;4.18;1.90;;;;;;;14.92;100.00;101936.63;4945227;29;20656;-46
2023/08/22 00:14:59;;;;;;;6.30;2.40;;;;;;;14.80;100.00;101942.50;4950710;29;20210;-48
2023/08/22 00:17:25;;;;;;;4.78;2.33;;;;;;;14.76;100.00;101940.88;4950465;29;20242;-52
2023/08/22 00:19:51;;;;;;;3.42;2.42;;;;;;;14.77;100.00;101930.00;4950633;29;20289;-47
2023/08/22 00:22:16;;;;;;;3.15;2.13;;;;;;;14.73;100.00;101927.50;4942457;29;20182;-45
2023/08/22 00:24:42;;;;;;;3.75;2.47;;;;;;;14.73;100.00;101931.06;4944217;28;20314;-48
2023/08/22 00:27:11;;;;;;;3.70;1.92;;;;;;;14.72;100.00;101934.72;4942800;29;20274;-51
2023/08/22 00:29:38;;;;;;;5.28;2.20;;;;;;;14.65;100.00;101935.88;4925585;29;20298;-48
2023/08/22 00:32:03;;;;;;;4.55;2.40;;;;;;;14.61;100.00;101942.34;4937560;29;20266;-47
2023/08/22 00:34:29;;;;;;;4.78;2.20;;;;;;;14.62;100.00;101936.00;4945104;29;20210;-48
2023/08/22 00:36:54;;;;;;;6.32;2.45;;;;;;;14.64;100.00;101931.41;4940997;29;20190;-51
2023/08/22 00:39:20;;;;;;;3.40;1.98;;;;;;;14.70;100.00;101928.50;4929143;29;20680;-47
2023/08/22 00:41:45;;;;;;;2.70;2.25;;;;;;;14.76;100.00;101914.78;4925030;29;20642;-49
2023/08/22 00:44:12;;;;;;;3.45;1.85;;;;;;;14.81;100.00;101907.38;4942179;28;20191;-53
2023/08/22 00:46:38;;;;;;;6.18;2.40;;;;;;;14.83;100.00;101908.19;4962054;28;20250;-48
2023/08/22 00:49:08;;;;;;;4.28;2.13;;;;;;;14.86;100.00;101900.91;4928048;29;20255;-49
2023/08/22 00:51:35;;;;;;;4.70;2.33;;;;;;;14.83;100.00;101894.72;4942252;29;20574;-53
2023/08/22 00:54:01;;;;;;;2.20;2.00;;;;;;;14.87;100.00;101899.97;4950327;29;20274;-48
2023/08/22 00:56:26;;;;;;;6.43;2.30;;;;;;;14.89;100.00;101887.31;4946687;29;20186;-49
2023/08/22 00:58:52;;;;;;;6.70;2.22;;;;;;;14.85;100.00;101891.97;4942882;29;20644;-47
2023/08/22 01:01:19;;;;;;;5.32;2.20;;;;;;;14.82;100.00;101884.88;4939220;29;20191;-53
2023/08/22 01:03:44;;;;;;;4.15;2.25;;;;;;;14.77;100.00;101894.94;4946614;29;20186;-52
2023/08/22 01:06:27;;;;;;;3.15;2.67;;;;;;;14.79;100.00;101893.06;4943245;29;20182;-46
2023/08/22 01:09:02;;;;;;;5.32;2.63;;;;;;;14.74;100.00;101889.69;4928477;29;20305;-52
2023/08/22 01:11:46;;;;;;;5.40;2.40;;;;;;;14.79;100.00;101893.06;4943830;29;20504;-47
2023/08/22 01:14:19;;;;;;;4.60;2.30;;;;;;;14.74;100.00;101902.28;4925964;29;20211;-48
2023/08/22 01:16:47;;;;;;;6.20;2.25;;;;;;;14.77;100.00;101896.75;4941552;29;20211;-48
2023/08/22 01:19:17;;;;;;;3.13;2.50;;;;;;;14.87;100.00;101895.47;4931912;29;20693;-47
2023/08/22 01:21:52;;;;;;;5.25;1.85;;;;;;;14.90;100.00;101897.16;4947615;29;20178;-46
2023/08/22 01:24:19;;;;;;;2.80;1.73;;;;;;;14.93;100.00;101897.03;4944081;29;20198;-46
2023/08/22 01:26:49;;;;;;;2.95;1.77;;;;;;;14.95;100.00;101889.75;4935313;29;20621;-47
2023/08/22 01:29:35;;;;;;;3.10;2.08;;;;;;;14.93;100.00;101897.03;4942598;29;20246;-48
2023/08/22 01:32:16;;;;;;;3.92;2.10;;;;;;;14.99;100.00;101891.41;4935684;29;20221;-50
2023/08/22 01:34:42;;;;;;;5.53;1.90;;;;;;;14.95;100.00;101890.63;4940845;29;20213;-47
2023/08/22 01:37:10;;;;;;;3.97;2.20;;;;;;;14.97;100.00;101890.59;4944976;29;20182;-46
2023/08/22 01:39:37;;;;;;;3.17;2.03;;;;;;;14.85;100.00;101891.97;4943668;29;20629;-47
2023/08/22 01:42:03;;;;;;;5.82;2.33;;;;;;;14.82;100.00;101892.97;4941876;29;20680;-49
2023/08/22 01:44:29;;;;;;;3.38;1.90;;;;;;;14.90;100.00;101897.16;4947980;29;20198;-47
2023/08/22 01:46:55;;;;;;;5.88;2.30;;;;;;;14.90;100.00;101902.56;4943996;29;20191;-47
2023/08/22 01:49:21;;;;;;;2.85;2.13;;;;;;;14.96;100.00;101902.34;4934674;28;20199;-50
2023/08/22 01:51:46;;;;;;;1.80;1.55;;;;;;;15.00;100.00;101904.84;4950193;28;20195;-48
2023/08/22 01:54:12;;;;;;;2.83;1.88;;;;;;;15.04;100.00;101900.19;4944946;29;20262;-45
2023/08/22 01:56:37;;;;;;;2.25;1.85;;;;;;;15.07;100.00;101881.19;4937960;28;20209;-46
2023/08/22 01:59:03;;;;;;;4.25;2.05;;;;;;;15.15;100.00;101873.66;4928291;28;20202;-47
2023/08/22 02:01:29;;;;;;;3.95;1.98;;;;;;;15.29;100.00;101875.78;4930602;29;20200;-53
2023/08/22 02:03:54;;;;;;;5.60;1.83;;;;;;;15.30;100.00;101853.22;4930203;28;20590;-48
2023/08/22 02:06:20;;;;;;;4.80;2.05;;;;;;;15.29;100.00;101847.91;4928636;28;20256;-48
2023/08/22 02:08:45;;;;;;;4.57;2.13;;;;;;;15.19;100.00;101840.19;4949509;28;20229;-53
2023/08/22 02:11:11;;;;;;;4.57;1.95;;;;;;;15.16;100.00;101847.53;4944277;28;20689;-46
2023/08/22 02:13:36;;;;;;;5.32;2.38;;;;;;;15.16;100.00;101831.34;4925742;29;20230;-46
2023/08/22 02:16:02;;;;;;;3.38;2.10;;;;;;;15.22;100.00;101856.28;4929881;29;20679;-52
2023/08/22 02:18:28;;;;;;;2.58;1.63;;;;;;;15.29;100.00;101853.31;4945444;28;20326;-51
2023/08/22 02:20:55;;;;;;;4.78;1.88;;;;;;;15.29;100.00;101846.09;4940242;28;20193;-47
2023/08/22 02:23:21;;;;;;;3.58;1.70;;;;;;;15.31;100.00;101837.94;4931048;28;20194;-55
2023/08/22 02:25:50;;;;;;;8.70;2.40;;;;;;;15.21;100.00;101845.53;4926930;29;20191;-52
2023/08/22 02:28:16;;;;;;;3.70;1.98;;;;;;;15.13;100.00;101850.34;4946506;28;20186;-47
2023/08/22 02:30:41;;;;;;;5.50;1.92;;;;;;;15.24;100.00;101834.63;4951291;28;20186;-47
2023/08/22 02:33:07;;;;;;;3.25;1.80;;;;;;;15.29;100.00;101832.59;4959234;28;20185;-51
2023/08/22 02:35:32;;;;;;;3.33;2.42;;;;;;;15.20;100.00;101825.75;4959870;28;20699;-48
2023/08/22 02:37:58;;;;;;;3.83;1.92;;;;;;;15.16;100.00;101828.66;4945000;28;20561;-49
2023/08/22 02:40:23;;;;;;;3.88;2.22;;;;;;;15.20;100.00;101822.19;4945304;28;20249;-46
2023/08/22 02:42:49;;;;;;;7.55;2.10;;;;;;;15.20;100.00;101819.47;4928258;29;20183;-47
2023/08/22 02:45:15;;;;;;;3.35;1.95;;;;;;;15.11;100.00;101817.13;4936170;28;20244;-48
2023/08/22 02:47:41;;;;;;;3.22;2.10;;;;;;;15.10;100.00;101813.56;4934158;29;20715;-52
2023/08/22 02:50:07;;;;;;;5.22;2.15;;;;;;;15.01;100.00;101814.81;4948324;28;20218;-50
2023/08/22 02:52:33;;;;;;;3.85;2.17;;;;;;;15.02;100.00;101816.59;4932021;29;20239;-51
2023/08/22 02:54:58;;;;;;;5.47;2.03;;;;;;;15.02;100.00;101811.22;4950936;28;20610;-47
2023/08/22 02:57:24;;;;;;;4.50;1.92;;;;;;;15.07;100.00;101812.84;4938225;28;20214;-49
2023/08/22 02:59:49;;;;;;;3.70;1.98;;;;;;;15.06;100.00;101809.25;4948159;28;20285;-50
2023/08/22 03:02:15;;;;;;;4.65;2.03;;;;;;;15.14;100.00;101809.81;4927919;28;20198;-48
2023/08/22 03:04:41;;;;;;;4.05;1.63;;;;;;;15.17;100.00;101811.50;4957663;28;20561;-49
2023/08/22 03:07:09;;;;;;;6.38;1.85;;;;;;;15.17;100.00;101809.66;4927669;28;20213;-54
2023/08/22 03:09:39;;;;;;;3.60;1.58;;;;;;;15.31;100.00;101803.72;4949215;28;20281;-48
2023/08/22 03:12:06;;;;;;;5.50;2.10;;;;;;;15.31;100.00;101802.84;4933915;29;20841;-46
2023/08/22 03:14:31;;;;;;;4.57;1.77;;;;;;;15.32;100.00;101807.28;4931187;29;20214;-48
2023/08/22 03:16:57;;;;;;;3.30;1.80;;;;;;;15.29;100.00;101797.50;4926009;29;20175;-49
2023/08/22 03:19:23;;;;;;;3.97;1.67;;;;;;;15.29;100.00;101797.50;4924666;28;20574;-50
2023/08/22 03:21:53;;;;;;;4.53;1.85;;;;;;;15.39;100.00;101800.66;4924338;29;20222;-47
2023/08/22 03:24:19;;;;;;;6.35;1.70;;;;;;;15.46;100.00;101799.47;4947825;28;20701;-52
2023/08/22 03:26:44;;;;;;;2.83;1.60;;;;;;;15.51;100.00;101775.84;4928906;29;20250;-46
2023/08/22 03:29:11;;;;;;;6.72;1.88;;;;;;;15.54;100.00;101774.81;4926768;29;20203;-46
2023/08/22 03:31:36;;;;;;;4.40;1.83;;;;;;;15.56;100.00;101779.19;4936838;29;20190;-45
2023/08/22 03:34:03;;;;;;;5.43;1.65;;;;;;;15.58;100.00;101777.31;4927030;29;20203;-46
2023/08/22 03:36:28;;;;;;;5.53;1.80;;;;;;;15.58;100.00;101776.44;4927162;29;20323;-46
2023/08/22 03:38:55;;;;;;;3.47;1.50;;;;;;;15.62;100.00;101776.25;4928219;29;20623;-44
2023/08/22 03:41:21;;;;;;;6.00;1.60;;;;;;;15.64;100.00;101777.03;4924368;29;20178;-46
2023/08/22 03:43:49;;;;;;;4.47;1.70;;;;;;;15.62;100.00;101783.47;4931138;29;20187;-46
2023/08/22 03:46:14;;;;;;;3.40;1.63;;;;;;;15.61;100.00;101782.59;4932294;29;20637;-44
2023/08/22 03:48:40;;;;;;;4.53;1.48;;;;;;;15.58;100.00;101771.91;4932235;29;20261;-47
2023/08/22 03:51:06;;;;;;;5.63;1.80;;;;;;;15.59;100.00;101773.69;4941864;29;20234;-49
2023/08/22 03:53:36;;;;;;;1.98;1.20;;;;;;;15.70;100.00;101777.72;4924299;29;20213;-46
2023/08/22 03:56:02;;;;;;;3.75;1.77;;;;;;;15.66;100.00;101769.75;4939683;29;20556;-48
2023/08/22 03:58:30;;;;;;;2.97;1.55;;;;;;;15.66;100.00;101779.69;4931922;29;20555;-48
2023/08/22 04:01:04;;;;;;;3.45;1.50;;;;;;;15.67;100.00;101776.03;4931207;29;20194;-50
2023/08/22 04:03:31;;;;;;;5.07;1.60;;;;;;;15.70;100.00;101770.50;4945775;29;20198;-49
2023/08/22 04:06:00;;;;;;;4.15;1.60;;;;;;;15.77;100.00;101781.94;4940373;29;20249;-47
2023/08/22 04:08:27;;;;;;;3.90;1.33;;;;;;;15.80;100.00;101773.69;4924325;29;20191;-49
2023/08/22 04:10:52;;;;;;;4.25;1.38;;;;;;;15.81;100.00;101770.94;4938307;29;20197;-51
2023/08/22 04:13:20;;;;;;;3.25;1.50;;;;;;;15.84;100.00;101772.63;4939635;29;20195;-46
2023/08/22 04:15:46;;;;;;;4.30;1.60;;;;;;;15.80;100.00;101765.59;4941660;29;20281;-46
2023/08/22 04:18:12;;;;;;;4.45;1.40;;;;;;;15.80;100.00;101776.41;4931616;28;20640;-52
2023/08/22 04:20:37;;;;;;;2.70;1.30;;;;;;;15.83;100.00;101774.44;4930566;29;20509;-48
2023/08/22 04:23:03;;;;;;;3.90;1.60;;;;;;;15.88;100.00;101771.53;4927885;29;20206;-51
2023/08/22 04:25:29;;;;;;;4.75;1.80;;;;;;;15.85;100.00;101763.53;4930288;29;20186;-49
2023/08/22 04:27:54;;;;;;;1.20;1.15;;;;;;;15.83;100.00;101774.44;4927943;29;20555;-47
2023/08/22 04:30:20;;;;;;;5.32;1.58;;;;;;;15.80;100.00;101765.59;4942400;29;20211;-50
2023/08/22 04:32:45;;;;;;;3.10;1.40;;;;;;;15.73;100.00;101775.78;4948037;29;20560;-48
2023/08/22 04:35:11;;;;;;;4.30;1.33;;;;;;;15.69;100.00;101774.13;4942567;28;20267;-46
2023/08/22 04:37:41;;;;;;;2.60;1.50;;;;;;;15.73;100.00;101764.13;4928972;29;20608;-48
2023/08/22 04:40:07;;;;;;;6.00;1.60;;;;;;;15.68;100.00;101761.59;4930146;29;20239;-49
2023/08/22 04:42:38;;;;;;;3.63;1.70;;;;;;;15.68;100.00;101774.19;4941558;29;20238;-48
2023/08/22 04:45:06;;;;;;;2.92;1.40;;;;;;;15.73;100.00;101781.19;4944520;29;20274;-45
2023/08/22 04:47:32;;;;;;;3.05;1.80;;;;;;;15.76;100.00;101774.78;4931877;29;20197;-46
2023/08/22 04:49:58;;;;;;;3.00;1.48;;;;;;;15.76;100.00;101778.34;4927821;29;20195;-48
2023/08/22 04:52:24;;;;;;;5.68;1.95;;;;;;;15.80;100.00;101774.56;4931459;29;20193;-48
2023/08/22 04:54:50;;;;;;;3.33;1.42;;;;;;;15.80;100.00;101763.75;4935068;29;20199;-50
2023/08/22 04:57:15;;;;;;;3.20;1.85;;;;;;;15.78;100.00;101775.59;4932768;29;20203;-50
2023/08/22 04:59:41;;;;;;;4.88;1.50;;;;;;;15.80;100.00;101776.41;4943673;29;20617;-47
2023/08/22 05:02:06;;;;;;;2.97;1.52;;;;;;;15.86;100.00;101768.88;4945917;29;20705;-49
2023/08/22 05:04:32;;;;;;;4.30;1.55;;;;;;;15.94;100.00;101765.84;4930288;29;20194;-47
2023/08/22 05:06:57;;;;;;;2.47;1.48;;;;;;;15.82;100.00;101779.91;4928580;29;20172;-48
2023/08/22 05:09:23;;;;;;;4.93;1.60;;;;;;;15.67;100.00;101786.84;4941613;29;20210;-49
2023/08/22 05:11:49;;;;;;;2.08;1.50;;;;;;;15.83;100.00;101782.56;4930287;29;20333;-52
2023/08/22 05:14:15;;;;;;;3.30;1.50;;;;;;;16.00;100.00;101784.47;4928728;29;20198;-47
2023/08/22 05:16:43;;;;;;;3.50;1.63;;;;;;;16.00;100.00;101775.50;4934882;29;20622;-53
2023/08/22 05:19:09;;;;;;;4.68;1.80;;;;;;;16.18;100.00;101771.94;4933989;29;20269;-46
2023/08/22 05:21:34;;;;;;;4.35;1.92;;;;;;;16.38;100.00;101756.63;4932286;29;20641;-46
2023/08/22 05:24:00;;;;;;;3.33;1.65;;;;;;;16.37;100.00;101753.00;4940485;29;20179;-48
2023/08/22 05:26:26;;;;;;;3.85;1.50;;;;;;;16.42;100.00;101737.47;4927160;29;20178;-46
2023/08/22 05:28:52;;;;;;;3.40;1.70;;;;;;;16.40;100.00;101747.47;4941866;29;20688;-51
2023/08/22 05:31:22;;;;;;;2.00;1.60;;;;;;;16.61;100.00;101739.25;4925970;29;20317;-53
2023/08/22 05:33:48;;;;;;;3.30;1.63;;;;;;;16.75;100.00;101725.03;4921275;29;20207;-48
2023/08/22 05:36:14;;;;;;;2.53;1.60;;;;;;;16.88;99.69;101728.94;4944202;29;20198;-47
2023/08/22 05:38:41;;;;;;;2.38;1.73;;;;;;;17.15;98.86;101717.66;4936191;29;20298;-46
2023/08/22 05:41:07;;;;;;;3.40;1.63;;;;;;;17.32;96.88;101725.78;4934383;29;20183;-47
2023/08/22 05:43:32;;;;;;;3.72;1.35;;;;;;;17.37;95.16;101717.41;4951516;29;20356;-46
2023/08/22 05:45:58;;;;;;;2.60;1.38;;;;;;;17.53;93.41;101729.16;4931380;29;20254;-48
2023/08/22 05:48:23;;;;;;;3.50;1.67;;;;;;;17.50;92.19;101729.34;4931747;29;20205;-52
2023/08/22 05:50:50;;;;;;;7.50;1.48;;;;;;;17.64;90.82;101715.91;4931718;29;20299;-47
2023/08/22 05:53:16;;;;;;;5.07;1.60;;;;;;;17.73;89.42;101724.53;4931984;29;20182;-51
2023/08/22 05:55:42;;;;;;;4.40;1.67;;;;;;;18.00;88.60;101720.34;4944542;29;20198;-47
2023/08/22 05:58:08;;;;;;;4.07;1.70;;;;;;;18.18;87.41;101710.31;4929829;29;20668;-48
2023/08/22 06:00:34;;;;;;;4.07;1.55;;;;;;;18.37;85.79;101704.72;4929395;29;20186;-52
2023/08/22 06:03:00;;;;;;;2.92;1.63;;;;;;;18.47;85.24;101711.34;4914761;29;20255;-53
2023/08/22 06:05:27;;;;;;;6.53;2.70;;;;;;;18.70;84.47;101715.47;4926034;29;20187;-49
2023/08/22 06:07:55;;;;;;;5.13;1.95;;;;;;;18.72;83.06;101705.38;4942478;29;20661;-46
2023/08/22 06:10:23;;;;;;;2.15;1.40;;;;;;;19.19;82.34;101710.84;4926411;29;20257;-50
2023/08/22 06:12:49;;;;;;;4.13;1.85;;;;;;;18.96;80.94;101710.38;4933195;29;20175;-48
2023/08/22 06:15:15;;;;;;;7.90;2.00;;;;;;;18.91;80.38;101705.22;4928522;29;20673;-48
2023/08/22 06:17:41;;;;;;;6.22;1.98;;;;;;;18.99;80.23;101709.31;4944831;29;20659;-52
2023/08/22 06:20:07;;;;;;;2.92;1.75;;;;;;;18.90;80.25;101698.03;4924732;29;20234;-46
2023/08/22 06:22:33;;;;;;;4.75;1.65;;;;;;;18.79;79.44;101697.78;4941960;29;20187;-45
2023/08/22 06:24:59;;;;;;;3.60;1.92;;;;;;;18.56;79.70;101703.66;4936536;29;20179;-46
2023/08/22 06:27:26;;;;;;;4.18;1.85;;;;;;;18.62;80.11;101706.00;4932045;29;20230;-51
2023/08/22 06:29:52;;;;;;;3.03;1.40;;;;;;;18.74;79.87;101711.59;4931046;29;20225;-50
2023/08/22 06:32:21;;;;;;;6.28;1.83;;;;;;;18.48;80.45;101704.97;4927145;29;20632;-52
2023/08/22 06:34:47;;;;;;;4.18;1.80;;;;;;;18.68;80.94;101716.53;4923068;29;20641;-49
2023/08/22 06:37:13;;;;;;;4.75;2.00;;;;;;;18.85;80.44;101712.88;4942670;29;20274;-50
2023/08/22 06:39:40;;;;;;;3.95;1.50;;;;;;;19.18;79.40;101711.81;4926338;29;20225;-46
2023/08/22 06:42:06;;;;;;;4.85;1.83;;;;;;;19.24;78.69;101709.59;4937803;29;20226;-49
2023/08/22 06:44:31;;;;;;;5.00;1.58;;;;;;;19.09;78.52;101694.22;4943461;29;20339;-51
2023/08/22 06:46:57;;;;;;;4.05;1.73;;;;;;;19.36;78.71;101699.81;4941719;29;20178;-47
2023/08/22 06:49:22;;;;;;;3.45;1.50;;;;;;;19.40;78.78;101708.66;4940185;29;20750;-45
2023/08/22 06:51:48;;;;;;;3.60;1.60;;;;;;;19.14;78.52;101709.25;4941775;29;20668;-48
2023/08/22 06:54:14;;;;;;;3.47;1.50;;;;;;;19.40;78.95;101714.97;4940651;29;20739;-46
2023/08/22 06:56:39;;;;;;;4.40;2.17;;;;;;;19.39;77.84;101696.03;4942180;28;20195;-43
2023/08/22 06:59:05;;;;;;;6.75;1.80;;;;;;;19.61;77.12;101695.56;4941973;29;20250;-47
2023/08/22 07:01:30;;;;;;;4.22;1.80;;;;;;;19.92;76.56;101691.84;4938769;29;20190;-47
2023/08/22 07:03:56;;;;;;;2.92;1.70;;;;;;;19.69;75.98;101691.44;4939260;29;20234;-45
2023/08/22 07:06:21;;;;;;;6.38;1.98;;;;;;;19.88;74.67;101679.41;4939105;29;20194;-47
2023/08/22 07:08:47;;;;;;;5.13;1.83;;;;;;;20.01;74.52;101674.06;4931818;29;20328;-46
2023/08/22 07:11:12;;;;;;;3.75;1.80;;;;;;;20.34;74.42;101666.41;4939878;29;20210;-45
2023/08/22 07:13:38;;;;;;;4.35;1.77;;;;;;;20.38;73.92;101656.19;4941050;29;20692;-46
2023/08/22 07:16:04;;;;;;;4.53;2.10;;;;;;;20.50;73.53;101649.91;4933644;29;20633;-47
2023/08/22 07:18:30;;;;;;;4.82;1.63;;;;;;;20.72;73.04;101653.94;4939482;29;20214;-48
2023/08/22 07:20:55;;;;;;;6.82;1.75;;;;;;;20.53;73.13;101659.72;4940321;29;20507;-46
2023/08/22 07:23:22;;;;;;;3.90;1.90;;;;;;;20.49;73.46;101667.22;4936511;29;20179;-46
2023/08/22 07:25:48;;;;;;;7.43;2.58;;;;;;;20.61;72.71;101656.53;4936874;29;20708;-47
2023/08/22 07:28:15;;;;;;;6.30;2.35;;;;;;;20.64;72.55;101642.69;4941171;29;20171;-46
2023/08/22 07:30:40;;;;;;;6.97;2.28;;;;;;;20.79;72.83;101657.97;4934757;29;20187;-47
2023/08/22 07:33:06;;;;;;;5.95;2.75;;;;;;;20.83;72.66;101659.53;4933969;28;20221;-48
2023/08/22 07:35:34;;;;;;;4.95;2.40;;;;;;;20.33;72.88;101661.94;4934576;28;20277;-49
2023/08/22 07:38:00;;;;;;;3.90;1.90;;;;;;;20.49;73.72;101667.22;4918151;29;20224;-46
2023/08/22 07:40:25;;;;;;;6.13;2.70;;;;;;;20.61;73.80;101668.28;4936108;29;20234;-46
2023/08/22 07:42:51;;;;;;;5.10;2.40;;;;;;;20.72;73.58;101673.88;4940203;29;20308;-47
2023/08/22 07:45:16;;;;;;;6.00;2.60;;;;;;;20.78;73.69;101673.47;4938506;29;20163;-46
2023/08/22 07:47:42;;;;;;;4.53;2.53;;;;;;;20.88;73.37;101667.38;4938779;29;20233;-46
2023/08/22 07:50:08;;;;;;;5.97;2.70;;;;;;;20.72;73.20;101676.59;4936887;29;20210;-47
2023/08/22 07:52:33;;;;;;;5.32;2.30;;;;;;;21.39;73.06;101684.69;4939220;29;20270;-46
2023/08/22 07:54:59;;;;;;;4.70;2.45;;;;;;;21.66;72.71;101685.63;4942581;28;20207;-44
2023/08/22 07:57:24;;;;;;;6.22;1.90;;;;;;;21.15;72.58;101683.69;4942459;29;20271;-47
2023/08/22 07:59:50;;;;;;;7.07;2.70;;;;;;;20.85;72.99;101678.50;4941103;29;20259;-45
2023/08/22 08:02:15;;;;;;;5.97;2.40;;;;;;;21.06;73.66;101697.97;4945288;29;20186;-46
2023/08/22 08:04:44;;;;;;;4.43;2.00;;;;;;;21.34;73.82;101692.34;4940597;29;20178;-48
2023/08/22 08:07:10;;;;;;;4.03;2.03;;;;;;;21.57;72.80;101693.47;4940454;29;20579;-46
2023/08/22 08:09:35;;;;;;;4.68;2.10;;;;;;;21.39;73.20;101698.34;4943205;29;20341;-46
2023/08/22 08:12:01;;;;;;;4.60;2.10;;;;;;;21.26;73.38;101705.63;4939924;29;20183;-46
2023/08/22 08:14:26;;;;;;;6.57;2.45;;;;;;;21.13;73.87;101704.72;4940488;29;20206;-46
2023/08/22 08:16:51;;;;;;;3.15;2.20;;;;;;;21.36;74.11;101704.00;4942514;29;20336;-46
2023/08/22 08:19:17;;;;;;;5.40;2.67;;;;;;;21.29;73.25;101705.41;4940900;29;20233;-47
2023/08/22 08:21:42;;;;;;;3.65;1.95;;;;;;;21.30;73.65;101707.16;4939582;29;20179;-46
2023/08/22 08:24:10;;;;;;;5.38;2.10;;;;;;;21.55;73.96;101713.66;4941535;29;20235;-47
2023/08/22 08:26:38;;;;;;;6.40;2.35;;;;;;;21.89;73.01;101701.22;4935500;29;20273;-47
2023/08/22 08:29:04;;;;;;;5.35;2.20;;;;;;;21.80;72.00;101693.69;4936502;29;20341;-48
2023/08/22 08:31:29;;;;;;;6.30;2.50;;;;;;;21.77;72.39;101682.97;4945714;29;20672;-45
2023/08/22 08:33:55;;;;;;;3.22;2.33;;;;;;;22.49;71.91;101695.97;4944815;28;20196;-46
2023/08/22 08:36:20;;;;;;;5.57;2.40;;;;;;;21.92;72.18;101692.78;4937595;29;20653;-47
2023/08/22 08:38:46;;;;;;;6.50;2.35;;;;;;;22.23;72.88;101700.63;4940294;29;20211;-46
2023/08/22 08:41:12;;;;;;;4.88;2.60;;;;;;;22.38;71.84;101691.31;4943540;29;20209;-45
2023/08/22 08:43:38;;;;;;;5.32;2.30;;;;;;;22.28;71.63;101688.41;4943086;29;20269;-45
2023/08/22 08:46:04;;;;;;;3.63;2.30;;;;;;;22.18;70.78;101696.34;4943604;29;20261;-46
2023/08/22 08:48:30;;;;;;;5.88;2.22;;;;;;;21.75;71.34;101684.94;4941204;29;20207;-45
2023/08/22 08:51:00;;;;;;;7.07;2.53;;;;;;;21.86;72.02;101692.38;4939941;29;20278;-46
2023/08/22 08:53:26;;;;;;;5.55;2.25;;;;;;;21.77;72.48;101692.03;4940945;29;20195;-45
2023/08/22 08:55:52;;;;;;;5.13;2.33;;;;;;;22.21;72.05;101693.41;4939801;29;20193;-45
2023/08/22 08:58:17;;;;;;;7.45;2.65;;;;;;;21.96;71.47;101691.59;4942177;29;20167;-47
2023/08/22 09:00:45;;;;;;;6.35;2.40;;;;;;;22.38;70.79;101694.03;4943707;29;20625;-46
2023/08/22 09:03:11;;;;;;;4.22;2.20;;;;;;;22.48;70.54;101691.47;4943199;29;20183;-45
2023/08/22 09:05:37;;;;;;;6.45;2.50;;;;;;;22.52;70.82;101687.53;4940958;28;20657;-45
2023/08/22 09:08:17;;;;;;;4.18;2.08;;;;;;;22.58;71.08;101692.53;4943334;28;20186;-45
2023/08/22 09:10:51;;;;;;;3.70;1.90;;;;;;;22.97;71.06;101696.81;4938049;29;20190;-45
2023/08/22 09:13:24;;;;;;;7.47;2.40;;;;;;;23.10;69.92;101685.00;4932172;29;20180;-46
2023/08/22 09:15:50;;;;;;;3.72;2.10;;;;;;;22.93;70.64;101691.72;4929210;29;20179;-47
2023/08/22 09:18:16;;;;;;;6.38;2.05;;;;;;;23.07;70.01;101677.00;4941630;29;20544;-46
2023/08/22 09:20:45;;;;;;;4.38;2.33;;;;;;;22.86;69.64;101677.66;4942702;29;20692;-45
2023/08/22 09:23:31;;;;;;;7.18;2.05;;;;;;;23.24;68.83;101676.56;4942460;29;20179;-46
2023/08/22 09:25:57;;;;;;;5.30;2.20;;;;;;;23.17;68.29;101684.38;4942804;29;20190;-47
2023/08/22 09:28:22;;;;;;;6.40;2.15;;;;;;;23.58;68.14;101679.38;4935638;29;20190;-47
2023/08/22 09:30:49;;;;;;;3.90;1.95;;;;;;;23.56;67.85;101667.69;4945021;29;20181;-46
2023/08/22 09:33:16;;;;;;;3.85;2.10;;;;;;;23.84;66.97;101664.50;4925632;29;20333;-49
2023/08/22 09:35:42;;;;;;;6.75;2.42;;;;;;;23.41;67.19;101661.56;4926903;29;20274;-47
2023/08/22 09:38:10;;;;;;;5.35;2.17;;;;;;;22.99;67.54;101663.91;4926244;28;20209;-46
2023/08/22 09:40:48;;;;;;;5.07;2.33;;;;;;;23.72;68.11;101672.78;4943419;28;20190;-47
2023/08/22 09:43:14;;;;;;;3.60;2.05;;;;;;;23.61;67.29;101668.19;4941794;29;20186;-48
2023/08/22 09:45:42;;;;;;;8.15;2.30;;;;;;;23.68;67.54;101666.72;4938183;29;20182;-48
2023/08/22 09:48:12;;;;;;;7.03;2.25;;;;;;;24.08;67.23;101671.72;4945539;29;20182;-48
2023/08/22 09:50:42;;;;;;;4.57;2.33;;;;;;;23.38;67.19;101661.81;4942695;29;20661;-47
2023/08/22 09:53:10;;;;;;;7.50;2.83;;;;;;;23.22;67.42;101668.50;4939592;29;20614;-46
2023/08/22 09:55:36;;;;;;;5.70;2.20;;;;;;;23.49;67.64;101664.56;4939784;29;20182;-48
2023/08/22 09:58:04;;;;;;;6.05;2.60;;;;;;;23.23;67.77;101663.91;4942546;29;20194;-47
2023/08/22 10:00:32;;;;;;;5.72;2.28;;;;;;;23.58;67.18;101663.81;4940190;29;20185;-45
2023/08/22 10:03:02;;;;;;;3.20;1.65;;;;;;;24.30;66.23;101654.38;4937240;29;20210;-47
2023/08/22 10:05:27;;;;;;;5.47;2.17;;;;;;;23.45;66.21;101652.13;4939332;29;20218;-47
2023/08/22 10:07:53;;;;;;;4.85;1.95;;;;;;;23.61;66.90;101659.97;4942297;29;20222;-47
2023/08/22 10:10:18;;;;;;;4.00;2.15;;;;;;;23.55;66.02;101653.16;4937740;29;20229;-46
2023/08/22 10:12:44;;;;;;;5.13;1.98;;;;;;;23.13;65.77;101646.47;4937296;29;20190;-47
2023/08/22 10:15:14;;;;;;;7.10;1.75;;;;;;;23.51;66.04;101648.91;4938417;29;20223;-47
2023/08/22 10:17:40;;;;;;;4.30;1.70;;;;;;;23.45;67.13;101661.19;4940906;28;20216;-45
2023/08/22 10:20:06;;;;;;;5.18;1.23;;;;;;;24.08;65.35;101638.00;4939491;29;20225;-46
2023/08/22 10:22:33;;;;;;;5.47;1.33;;;;;;;23.92;63.65;101616.47;4922542;29;20673;-48
2023/08/22 10:25:06;;;;;;;5.32;1.30;;;;;;;23.95;63.71;101621.69;4929007;29;20183;-47
2023/08/22 10:27:35;;;;;;;2.65;1.38;;;;;;;24.38;63.06;101613.50;4938674;29;20186;-47
2023/08/22 10:30:12;;;;;;;3.13;1.25;;;;;;;24.13;62.15;101602.88;4937628;29;20207;-48
2023/08/22 10:32:39;;;;;;;6.53;1.50;;;;;;;23.31;62.94;101609.47;4945394;28;20198;-47
2023/08/22 10:35:12;;;;;;;2.53;1.10;;;;;;;23.68;63.63;101619.31;4936616;29;20241;-46
2023/08/22 10:37:47;;;;;;;5.97;1.63;;;;;;;23.70;64.45;101629.13;4927907;29;20645;-48
2023/08/22 10:40:24;;;;;;;4.82;1.30;;;;;;;24.30;63.83;101632.47;4940052;29;20293;-46
2023/08/22 10:42:51;;;;;;;5.75;1.52;;;;;;;23.97;62.59;101603.28;4937790;29;20560;-46
2023/08/22 10:45:17;;;;;;;4.35;1.50;;;;;;;24.34;63.14;101627.59;4939499;29;20186;-48
2023/08/22 10:47:42;;;;;;;3.85;1.50;;;;;;;24.65;62.19;101613.06;4936292;29;20174;-47
2023/08/22 10:50:11;;;;;;;3.47;1.20;;;;;;;24.49;61.24;101596.22;4939279;29;20261;-47
2023/08/22 10:52:39;;;;;;;4.35;1.30;;;;;;;24.55;61.52;101603.88;4941537;29;20602;-46
2023/08/22 10:55:10;;;;;;;5.15;1.10;;;;;;;24.31;61.54;101598.56;4937146;29;20221;-46
2023/08/22 10:57:38;;;;;;;7.15;1.58;;;;;;;24.28;61.99;101609.81;4938628;29;20334;-47
2023/08/22 11:00:13;;;;;;;4.88;1.55;;;;;;;24.13;61.61;101594.66;4938295;29;20616;-47
2023/08/22 11:02:42;;;;;;;4.00;1.30;;;;;;;24.42;61.27;101600.41;4935027;29;20185;-47
2023/08/22 11:05:11;;;;;;;4.70;1.35;;;;;;;23.92;61.60;101595.47;4938626;29;20182;-46
2023/08/22 11:07:41;;;;;;;4.35;1.27;;;;;;;23.61;61.92;101599.78;4938930;29;20187;-47
2023/08/22 11:10:08;;;;;;;3.67;1.42;;;;;;;23.84;61.81;101596.06;4935056;29;20198;-46
2023/08/22 11:12:34;;;;;;;4.68;1.63;;;;;;;24.23;60.72;101577.34;4924589;29;20186;-48
2023/08/22 11:14:59;;;;;;;3.38;1.08;;;;;;;24.68;61.21;101585.38;4936995;29;20202;-47
2023/08/22 11:17:25;;;;;;;4.47;1.50;;;;;;;24.13;62.06;101600.13;4937970;29;20182;-48
2023/08/22 11:19:55;;;;;;;4.85;1.38;;;;;;;24.66;59.42;101573.72;4932509;29;20645;-47